Clio, South Carolina
Current Conditions -  °F | °C
As of 2:35 PM on Wednesday 17 Dec 2014 (Local Time) from KBBP Reporting Station
Clear Clear  
Wind Chill: 63°   Ceiling: Unl
Heat Index: 63°   Visibility: 10mi
Dew Point: 32°   Wind: 12mph
Humidity: 32%   Direction: 270°W
Pressure: 30.06"   Gusts: NA
Location:  34.58°N, 79.55°W
Report Text: KBBP 171935Z AUTO 27010KT 10SM CLR 17/00 A3006 RMK AO2
Loading
Personal Weather Stations






























Interactive Weather Map New forecast layout! Learn more

10-Day Weather Forecast

Advertisements
Track Severe Weather on mobile